createdAt,value
2018-03-15T00:01:11.288Z,576.47
2018-03-15T00:03:39.055Z,577.17
2018-03-15T00:06:06.685Z,574.25
2018-03-15T00:08:34.376Z,577.88
2018-03-15T00:11:02.227Z,576.17
2018-03-15T00:13:29.986Z,575.42
2018-03-15T00:15:57.458Z,572.47
2018-03-15T00:18:25.003Z,576.67
2018-03-15T00:20:52.786Z,574.25
2018-03-15T00:23:20.247Z,471.55
2018-03-15T00:25:48.016Z,579.85
2018-03-15T00:28:15.552Z,462.40
2018-03-15T00:30:43.001Z,571.28
2018-03-15T00:33:10.750Z,576.55
2018-03-15T00:35:39.032Z,568.83
2018-03-15T00:38:06.482Z,575.00
2018-03-15T00:40:34.483Z,571.12
2018-03-15T00:43:01.930Z,574.78
2018-03-15T00:45:29.843Z,572.83
2018-03-15T00:47:57.527Z,570.53
2018-03-15T00:50:25.346Z,572.03
2018-03-15T00:52:53.043Z,571.50
2018-03-15T00:55:20.788Z,467.17
2018-03-15T00:57:48.443Z,567.85
2018-03-15T01:00:15.890Z,571.42
2018-03-15T01:02:43.342Z,568.63
2018-03-15T01:05:10.879Z,571.47
2018-03-15T01:07:38.766Z,569.30
2018-03-15T01:10:06.563Z,574.95
2018-03-15T01:12:34.294Z,574.10
2018-03-15T01:15:01.918Z,569.40
2018-03-15T01:17:30.380Z,570.35
2018-03-15T01:19:58.699Z,570.58
2018-03-15T01:22:26.479Z,572.80
2018-03-15T01:24:54.354Z,576.33
2018-03-15T01:27:21.836Z,569.30
2018-03-15T01:29:49.289Z,577.55
2018-03-15T01:32:16.903Z,569.90
2018-03-15T01:34:44.361Z,571.58
2018-03-15T01:37:11.843Z,567.97
2018-03-15T01:39:39.605Z,568.55
2018-03-15T01:42:07.807Z,571.42
2018-03-15T01:44:35.251Z,568.37
2018-03-15T01:47:02.879Z,569.90
2018-03-15T01:49:30.767Z,570.62
2018-03-15T01:51:58.605Z,565.60
2018-03-15T01:54:26.328Z,569.95
2018-03-15T01:56:54.235Z,569.60
2018-03-15T01:59:22.027Z,568.92
2018-03-15T02:01:49.592Z,569.05
2018-03-15T02:04:17.379Z,569.80
2018-03-15T02:06:45.031Z,484.02
2018-03-15T02:09:13.364Z,570.60
2018-03-15T02:11:41.264Z,569.92
2018-03-15T02:14:09.028Z,476.25
2018-03-15T02:16:37.100Z,570.17
2018-03-15T02:19:04.571Z,569.37
2018-03-15T02:21:32.218Z,568.28
2018-03-15T02:23:59.723Z,574.38
2018-03-15T02:26:27.442Z,572.05
2018-03-15T02:28:55.187Z,573.37
2018-03-15T02:31:22.755Z,489.85
2018-03-15T02:33:50.239Z,567.25
2018-03-15T02:36:17.691Z,572.67
2018-03-15T02:38:45.303Z,573.60
2018-03-15T02:41:12.757Z,574.78
2018-03-15T02:43:40.304Z,567.55
2018-03-15T02:46:07.998Z,573.85
2018-03-15T02:48:36.107Z,572.22
2018-03-15T02:51:03.581Z,570.85
2018-03-15T02:53:31.047Z,573.03
2018-03-15T02:55:58.746Z,572.13
2018-03-15T02:58:26.231Z,573.37
2018-03-15T03:00:54.091Z,571.63
2018-03-15T03:03:21.734Z,570.30
2018-03-15T03:05:49.177Z,565.65
2018-03-15T03:08:16.779Z,569.60
2018-03-15T03:10:46.117Z,571.40
2018-03-15T03:13:13.700Z,567.97
2018-03-15T03:15:41.282Z,575.97
2018-03-15T03:18:08.922Z,564.83
2018-03-15T03:20:36.562Z,569.83
2018-03-15T03:23:04.410Z,570.83
2018-03-15T03:25:32.833Z,462.65
2018-03-15T03:28:00.435Z,565.58
2018-03-15T03:30:28.155Z,566.45
2018-03-15T03:32:55.921Z,459.77
2018-03-15T03:35:23.375Z,565.20
2018-03-15T03:37:50.850Z,573.03
2018-03-15T03:40:18.514Z,563.42
2018-03-15T03:42:46.319Z,572.75
2018-03-15T03:45:13.858Z,567.83
2018-03-15T03:47:41.624Z,566.03
2018-03-15T03:50:09.269Z,563.92
2018-03-15T03:52:37.028Z,564.05
2018-03-15T03:55:04.597Z,568.25
2018-03-15T03:57:32.350Z,580.22
2018-03-15T04:00:00.015Z,563.83
2018-03-15T04:02:27.586Z,571.45
2018-03-15T04:04:55.043Z,566.72
2018-03-15T04:07:22.504Z,568.17
2018-03-15T04:09:50.134Z,478.42
2018-03-15T04:12:17.621Z,459.95
2018-03-15T04:14:45.479Z,561.28
2018-03-15T04:17:13.109Z,564.05
2018-03-15T04:19:40.675Z,564.33
2018-03-15T04:22:08.356Z,566.60
2018-03-15T04:24:36.232Z,566.30
2018-03-15T04:27:03.674Z,562.60
2018-03-15T04:29:31.455Z,559.60
2018-03-15T04:31:59.225Z,569.72
2018-03-15T04:34:26.679Z,563.28
2018-03-15T04:36:54.294Z,560.10
2018-03-15T04:39:21.806Z,566.97
2018-03-15T04:41:49.658Z,566.33
2018-03-15T04:44:17.306Z,564.42
2018-03-15T04:46:44.746Z,564.75
2018-03-15T04:49:12.431Z,557.65
2018-03-15T04:51:40.262Z,561.42
2018-03-15T04:54:07.753Z,567.22
2018-03-15T04:56:35.214Z,560.70
2018-03-15T04:59:02.786Z,567.92
2018-03-15T05:01:30.230Z,561.95
2018-03-15T05:03:57.994Z,567.37
2018-03-15T05:06:25.444Z,570.17
2018-03-15T05:08:52.895Z,566.10
2018-03-15T05:11:20.982Z,473.33
2018-03-15T05:13:48.478Z,563.28
2018-03-15T05:16:16.082Z,565.60
2018-03-15T05:18:43.672Z,569.47
2018-03-15T05:21:11.286Z,559.60
2018-03-15T05:23:38.790Z,559.80
2018-03-15T05:26:06.629Z,567.22
2018-03-15T05:28:34.414Z,562.28
2018-03-15T05:31:01.860Z,559.60
2018-03-15T05:33:29.311Z,566.62
2018-03-15T05:35:57.397Z,560.05
2018-03-15T05:38:24.942Z,562.62
2018-03-15T05:40:52.659Z,562.53
2018-03-15T05:43:20.694Z,480.85
2018-03-15T05:45:48.146Z,448.90
2018-03-15T05:48:16.089Z,560.45
2018-03-15T05:50:43.909Z,561.60
2018-03-15T05:53:11.756Z,564.65
2018-03-15T05:55:39.514Z,457.35
2018-03-15T05:58:06.964Z,564.97
2018-03-15T06:00:34.612Z,564.72
2018-03-15T06:03:02.062Z,561.65
2018-03-15T06:05:30.609Z,565.35
2018-03-15T06:07:58.198Z,564.90
2018-03-15T06:10:26.035Z,563.53
2018-03-15T06:12:53.871Z,562.70
2018-03-15T06:15:21.350Z,562.00
2018-03-15T06:17:49.086Z,568.37
2018-03-15T06:20:16.874Z,566.15
2018-03-15T06:22:44.328Z,475.58
2018-03-15T06:25:11.943Z,562.35
2018-03-15T06:27:39.699Z,564.72
2018-03-15T06:30:07.326Z,566.97
2018-03-15T06:32:35.702Z,568.55
2018-03-15T06:35:03.442Z,570.55
2018-03-15T06:37:31.098Z,563.97
2018-03-15T06:39:58.836Z,567.20
2018-03-15T06:42:26.342Z,572.95
2018-03-15T06:44:53.790Z,574.30
2018-03-15T06:47:21.241Z,571.35
2018-03-15T06:49:48.767Z,575.25
2018-03-15T06:52:16.422Z,578.17
2018-03-15T06:54:43.925Z,578.70
2018-03-15T06:57:11.781Z,573.33
2018-03-15T06:59:39.242Z,574.22
2018-03-15T07:02:06.721Z,579.55
2018-03-15T07:04:34.415Z,580.08
2018-03-15T07:07:02.786Z,583.97
2018-03-15T07:09:30.246Z,579.95
2018-03-15T07:11:58.066Z,584.55
2018-03-15T07:14:25.523Z,584.03
2018-03-15T07:16:53.182Z,499.80
2018-03-15T07:19:20.924Z,593.10
2018-03-15T07:21:48.366Z,591.60
2018-03-15T07:24:16.475Z,592.97
2018-03-15T07:26:43.925Z,596.30
2018-03-15T07:29:11.374Z,599.33
2018-03-15T07:31:39.254Z,597.22
2018-03-15T07:34:07.322Z,601.40
2018-03-15T07:36:35.087Z,604.03
2018-03-15T07:39:02.850Z,605.60
2018-03-15T07:41:30.758Z,609.65
2018-03-15T07:43:58.985Z,611.05
2018-03-15T07:46:26.620Z,488.30
2018-03-15T07:48:55.159Z,612.65
2018-03-15T07:51:22.766Z,618.72
2018-03-15T07:53:50.222Z,640.38
2018-03-15T07:56:17.682Z,590.83
2018-03-15T07:58:45.202Z,675.40
2018-03-15T08:01:12.715Z,677.65
2018-03-15T08:03:40.135Z,682.97
2018-03-15T08:06:07.586Z,685.83
2018-03-15T08:08:35.810Z,700.20
2018-03-15T08:11:03.431Z,573.43
2018-03-15T08:13:30.874Z,713.53
2018-03-15T08:15:58.346Z,715.47
2018-03-15T08:18:26.034Z,714.20
2018-03-15T08:20:53.486Z,717.97
2018-03-15T08:23:20.934Z,720.47
2018-03-15T08:25:48.386Z,727.07
2018-03-15T08:28:15.926Z,725.63
2018-03-15T08:30:43.375Z,728.43
2018-03-15T08:33:10.826Z,725.87
2018-03-15T08:35:38.282Z,725.70
2018-03-15T08:38:06.434Z,719.47
2018-03-15T08:40:34.086Z,718.67
2018-03-15T08:43:01.547Z,707.10
2018-03-15T08:45:29.252Z,709.17
2018-03-15T08:47:57.966Z,718.23
2018-03-15T08:50:25.468Z,713.57
2018-03-15T08:52:53.200Z,718.27
2018-03-15T08:55:20.646Z,715.57
2018-03-15T08:57:48.139Z,722.63
2018-03-15T09:00:16.060Z,725.90
2018-03-15T09:02:43.774Z,735.87
2018-03-15T09:05:11.538Z,726.50
2018-03-15T09:07:38.981Z,681.50
2018-03-15T09:10:06.450Z,736.37
2018-03-15T09:12:33.890Z,729.73
2018-03-15T09:15:01.347Z,735.93
2018-03-15T09:17:28.787Z,741.27
2018-03-15T09:19:56.245Z,747.67
2018-03-15T09:22:23.695Z,748.43
2018-03-15T09:24:51.146Z,747.43
2018-03-15T09:27:18.597Z,749.87
2018-03-15T09:29:46.825Z,748.87
2018-03-15T09:32:14.270Z,745.73
2018-03-15T09:34:41.736Z,759.03
2018-03-15T09:37:09.330Z,760.50
2018-03-15T09:39:36.822Z,766.63
2018-03-15T09:42:04.265Z,770.07
2018-03-15T09:44:31.718Z,771.27
2018-03-15T09:46:59.194Z,774.07
2018-03-15T09:49:26.642Z,770.70
2018-03-15T09:51:54.172Z,763.23
2018-03-15T09:54:21.626Z,749.17
2018-03-15T09:56:49.095Z,756.00
2018-03-15T09:59:16.749Z,734.93
2018-03-15T10:01:44.221Z,740.40
2018-03-15T10:04:11.669Z,735.67
2018-03-15T10:06:39.118Z,733.03
2018-03-15T10:09:06.570Z,738.30
2018-03-15T10:11:34.022Z,732.77
2018-03-15T10:14:01.466Z,745.80
2018-03-15T10:16:28.942Z,744.33
2018-03-15T10:18:56.390Z,741.10
2018-03-15T10:21:23.864Z,742.23
2018-03-15T10:23:51.310Z,736.07
2018-03-15T10:26:18.785Z,739.33
2018-03-15T10:28:47.007Z,741.60
2018-03-15T10:31:14.475Z,748.23
2018-03-15T10:33:41.918Z,748.73
2018-03-15T10:36:09.386Z,745.00
2018-03-15T10:38:36.835Z,761.53
2018-03-15T10:41:04.294Z,755.67
2018-03-15T10:43:31.802Z,743.53
2018-03-15T10:46:00.020Z,741.67
2018-03-15T10:48:27.481Z,737.20
2018-03-15T10:50:54.930Z,755.80
2018-03-15T10:53:22.374Z,761.83
2018-03-15T10:55:49.865Z,760.73
2018-03-15T10:58:17.322Z,763.90
2018-03-15T11:00:50.494Z,759.37
2018-03-15T11:03:17.942Z,760.83
2018-03-15T11:05:48.274Z,765.57
2018-03-15T11:08:21.304Z,770.87
2018-03-15T11:10:48.994Z,781.17
2018-03-15T11:13:16.501Z,769.07
2018-03-15T11:15:43.957Z,763.90
2018-03-15T11:18:11.406Z,761.50
2018-03-15T11:20:38.858Z,755.33
2018-03-15T11:23:06.311Z,754.03
2018-03-15T11:25:33.768Z,748.80
2018-03-15T11:28:01.213Z,758.47
2018-03-15T11:30:28.671Z,762.27
2018-03-15T11:32:56.122Z,750.43
2018-03-15T11:35:23.578Z,755.00
2018-03-15T11:37:51.063Z,761.90
2018-03-15T11:40:18.530Z,751.17
2018-03-15T11:42:45.980Z,751.17
2018-03-15T11:45:13.476Z,753.83
2018-03-15T11:47:40.934Z,752.63
2018-03-15T11:50:08.406Z,755.77
2018-03-15T11:52:35.874Z,755.77
2018-03-15T11:55:03.322Z,755.50
2018-03-15T11:57:30.782Z,759.17
2018-03-15T11:59:58.274Z,759.73
2018-03-15T12:02:25.747Z,755.97
2018-03-15T12:04:53.200Z,748.47
2018-03-15T12:07:20.678Z,743.23
2018-03-15T12:09:48.142Z,568.87
2018-03-15T12:12:15.610Z,859.70
2018-03-15T12:14:43.834Z,767.73
2018-03-15T12:17:11.348Z,850.90
2018-03-15T12:19:38.740Z,632.23
2018-03-15T12:22:07.918Z,758.67
2018-03-15T12:24:35.365Z,750.53
2018-03-15T12:27:02.822Z,752.37
2018-03-15T12:29:31.047Z,748.83
2018-03-15T12:31:58.510Z,754.57
2018-03-15T12:34:25.965Z,753.17
2018-03-15T12:36:53.426Z,763.33
2018-03-15T12:39:20.883Z,745.60
2018-03-15T12:41:48.520Z,740.10
2018-03-15T12:44:16.729Z,739.03
2018-03-15T12:46:44.195Z,733.23
2018-03-15T12:49:11.662Z,740.27
2018-03-15T12:51:39.110Z,731.43
2018-03-15T12:54:06.563Z,727.67
2018-03-15T12:56:34.063Z,730.93
2018-03-15T12:59:01.564Z,756.37
2018-03-15T13:01:29.222Z,758.57
2018-03-15T13:03:56.683Z,756.17
2018-03-15T13:06:24.154Z,760.77
2018-03-15T13:08:53.126Z,767.37
2018-03-15T13:11:20.610Z,752.30
2018-03-15T13:13:48.059Z,751.67
2018-03-15T13:16:15.558Z,751.63
2018-03-15T13:18:43.023Z,764.53
2018-03-15T13:21:10.600Z,760.60
2018-03-15T13:23:38.071Z,769.33
2018-03-15T13:26:05.526Z,664.80
2018-03-15T13:28:33.002Z,772.67
2018-03-15T13:31:00.690Z,765.40
2018-03-15T13:33:28.164Z,772.87
2018-03-15T13:35:56.388Z,832.47
2018-03-15T13:38:23.846Z,867.73
2018-03-15T13:40:51.330Z,686.97
2018-03-15T13:43:18.778Z,577.93
2018-03-15T13:45:46.246Z,515.77
2018-03-15T13:48:13.741Z,815.87
2018-03-15T13:50:41.186Z,837.70
2018-03-15T13:53:08.672Z,824.40
2018-03-15T13:55:36.139Z,817.17
2018-03-15T13:58:03.755Z,806.93
2018-03-15T14:00:31.236Z,820.77
2018-03-15T14:02:58.704Z,790.37
2018-03-15T14:05:26.151Z,772.60
2018-03-15T14:07:53.635Z,628.87
2018-03-15T14:10:21.083Z,712.73
2018-03-15T14:12:48.551Z,731.40
2018-03-15T14:15:16.016Z,698.50
2018-03-15T14:17:43.539Z,746.97
2018-03-15T14:20:10.962Z,795.25
2018-03-15T14:22:38.443Z,748.33
2018-03-15T14:25:05.915Z,802.30
2018-03-15T14:27:33.365Z,803.20
2018-03-15T14:30:00.862Z,803.20
2018-03-15T14:32:28.323Z,814.87
2018-03-15T14:34:55.836Z,814.47
2018-03-15T14:37:24.036Z,783.10
2018-03-15T14:39:51.523Z,773.67
2018-03-15T14:42:18.975Z,801.50
2018-03-15T14:44:46.459Z,725.55
2018-03-15T14:47:13.910Z,723.78
2018-03-15T14:49:41.415Z,733.97
2018-03-15T14:52:08.901Z,721.85
2018-03-15T14:54:36.354Z,767.85
2018-03-15T14:57:03.830Z,566.57
2018-03-15T14:59:31.286Z,684.87
2018-03-15T15:01:58.734Z,684.07
2018-03-15T15:04:26.207Z,690.30
2018-03-15T15:06:54.423Z,689.77
2018-03-15T15:09:21.887Z,701.50
2018-03-15T15:11:49.354Z,691.60
2018-03-15T15:14:16.822Z,691.33
2018-03-15T15:16:44.262Z,683.53
2018-03-15T15:19:11.755Z,682.95
2018-03-15T15:21:39.207Z,683.50
2018-03-15T15:24:06.686Z,684.17
2018-03-15T15:26:34.180Z,690.47
2018-03-15T15:29:01.647Z,678.20
2018-03-15T15:31:29.107Z,689.07
2018-03-15T15:33:56.603Z,681.87
2018-03-15T15:36:24.042Z,680.13
2018-03-15T15:38:51.490Z,683.47
2018-03-15T15:41:18.990Z,679.78
2018-03-15T15:43:47.257Z,683.35
2018-03-15T15:46:14.731Z,681.10
2018-03-15T15:48:42.195Z,680.20
2018-03-15T15:51:09.846Z,685.95
2018-03-15T15:53:37.303Z,679.42
2018-03-15T15:56:05.519Z,39.37
2018-03-15T15:58:32.958Z,43.87
2018-03-15T16:01:00.430Z,36.67
2018-03-15T16:03:28.088Z,38.35
2018-03-15T16:05:55.550Z,661.17
2018-03-15T16:08:23.027Z,28.73
2018-03-15T16:10:50.511Z,53.47
2018-03-15T16:13:17.967Z,21.17
2018-03-15T16:15:45.478Z,37.73
2018-03-15T16:18:12.883Z,653.83
2018-03-15T16:20:40.347Z,649.88
2018-03-15T16:23:07.811Z,652.92
2018-03-15T16:25:35.269Z,656.55
2018-03-15T16:28:02.747Z,662.50
2018-03-15T16:30:30.237Z,668.33
2018-03-15T16:32:57.705Z,538.10
2018-03-15T16:35:25.326Z,660.00
2018-03-15T16:37:52.779Z,661.22
2018-03-15T16:40:20.265Z,658.58
2018-03-15T16:42:47.698Z,660.58
2018-03-15T16:45:15.146Z,666.40
2018-03-15T16:47:42.730Z,524.03
2018-03-15T16:50:10.174Z,538.80
2018-03-15T16:52:37.816Z,544.10
2018-03-15T16:55:05.254Z,539.83
2018-03-15T16:57:32.706Z,658.30
2018-03-15T17:00:00.220Z,540.22
2018-03-15T17:02:27.618Z,542.17
2018-03-15T17:04:55.236Z,529.35
2018-03-15T17:07:22.709Z,665.35
2018-03-15T17:09:50.186Z,532.12
2018-03-15T17:12:17.630Z,517.50
2018-03-15T17:14:45.102Z,542.05
2018-03-15T17:17:12.546Z,541.10
2018-03-15T17:19:40.014Z,555.60
2018-03-15T17:22:07.498Z,559.15
2018-03-15T17:24:35.728Z,533.20
2018-03-15T17:27:03.204Z,541.58
2018-03-15T17:29:30.646Z,460.30
2018-03-15T17:31:58.102Z,543.78
2018-03-15T17:34:25.552Z,522.35
2018-03-15T17:36:53.036Z,525.47
2018-03-15T17:39:20.574Z,523.03
2018-03-15T17:41:48.086Z,524.08
2018-03-15T17:44:16.302Z,546.95
2018-03-15T17:46:43.755Z,542.72
2018-03-15T17:49:11.223Z,537.50
2018-03-15T17:51:38.685Z,526.10
2018-03-15T17:54:06.155Z,512.12
2018-03-15T17:56:33.614Z,541.33
2018-03-15T17:59:01.058Z,535.20
2018-03-15T18:01:28.523Z,519.78
2018-03-15T18:03:55.979Z,538.37
2018-03-15T18:06:23.430Z,521.67
2018-03-15T18:08:50.910Z,513.83
2018-03-15T18:11:18.520Z,535.97
2018-03-15T18:13:45.957Z,527.62
2018-03-15T18:16:13.394Z,537.70
2018-03-15T18:18:41.627Z,538.05
2018-03-15T18:21:09.117Z,513.25
2018-03-15T18:23:36.579Z,555.40
2018-03-15T18:26:04.018Z,547.08
2018-03-15T18:28:31.466Z,528.50
2018-03-15T18:30:58.911Z,550.05
2018-03-15T18:33:26.403Z,669.75
2018-03-15T18:35:53.842Z,520.65
2018-03-15T18:38:21.310Z,529.30
2018-03-15T18:40:48.783Z,508.20
2018-03-15T18:43:16.240Z,507.00
2018-03-15T18:45:43.678Z,520.72
2018-03-15T18:48:11.150Z,515.15
2018-03-15T18:50:38.594Z,543.37
2018-03-15T18:53:06.051Z,539.83
2018-03-15T18:55:33.507Z,585.47
2018-03-15T18:58:00.958Z,607.08
2018-03-15T19:00:28.415Z,482.50
2018-03-15T19:02:55.866Z,546.65
2018-03-15T19:05:23.348Z,492.58
2018-03-15T19:07:50.815Z,530.85
2018-03-15T19:10:18.247Z,557.45
2018-03-15T19:12:46.871Z,545.62
2018-03-15T19:15:14.311Z,546.45
2018-03-15T19:17:42.547Z,447.48
2018-03-15T19:20:10.034Z,448.67
2018-03-15T19:22:37.500Z,487.70
2018-03-15T19:25:04.894Z,466.00
2018-03-15T19:27:32.366Z,498.95
2018-03-15T19:29:59.804Z,57.92
2018-03-15T19:32:27.458Z,41.78
2018-03-15T19:34:54.911Z,474.83
2018-03-15T19:37:22.375Z,483.08
2018-03-15T19:39:49.862Z,450.17
2018-03-15T19:42:17.318Z,486.25
2018-03-15T19:44:45.098Z,484.60
2018-03-15T19:47:12.546Z,492.98
2018-03-15T19:49:39.994Z,494.37
2018-03-15T19:52:07.433Z,457.50
2018-03-15T19:54:34.942Z,485.60
2018-03-15T19:57:02.386Z,454.15
2018-03-15T19:59:29.847Z,489.27
2018-03-15T20:01:57.453Z,444.75
2018-03-15T20:04:24.956Z,585.90
2018-03-15T20:06:52.439Z,47.38
2018-03-15T20:09:20.158Z,222.15
2018-03-15T20:11:47.723Z,116.12
2018-03-15T20:14:15.362Z,480.17
2018-03-15T20:16:42.838Z,164.80
2018-03-15T20:19:15.858Z,479.50
2018-03-15T20:21:43.294Z,47.38
2018-03-15T20:24:16.446Z,232.20
2018-03-15T20:26:43.926Z,107.05
2018-03-15T20:29:11.385Z,205.93
2018-03-15T20:31:38.882Z,52.55
2018-03-15T20:34:10.118Z,41.97
2018-03-15T20:36:38.529Z,52.28
2018-03-15T20:39:11.714Z,38.33
2018-03-15T20:41:39.979Z,36.38
2018-03-15T20:44:07.434Z,35.47
2018-03-15T20:46:40.699Z,48.78
2018-03-15T20:49:11.930Z,124.75
2018-03-15T20:51:39.607Z,46.88
2018-03-15T20:54:07.087Z,30.80
2018-03-15T20:56:35.070Z,114.25
2018-03-15T20:59:02.525Z,108.95
2018-03-15T21:01:29.970Z,59.47
2018-03-15T21:03:57.806Z,31.42
2018-03-15T21:06:25.434Z,51.17
2018-03-15T21:08:53.036Z,106.47
2018-03-15T21:11:20.782Z,33.35
2018-03-15T21:13:48.239Z,38.95
2018-03-15T21:16:15.697Z,59.55
2018-03-15T21:18:43.479Z,37.90
2018-03-15T21:21:10.918Z,130.95
2018-03-15T21:23:38.395Z,39.35
2018-03-15T21:26:05.856Z,39.58
2018-03-15T21:28:33.366Z,63.63
2018-03-15T21:31:01.963Z,33.03
2018-03-15T21:33:29.389Z,186.23
2018-03-15T21:35:56.835Z,114.80
2018-03-15T21:38:24.291Z,53.80
2018-03-15T21:40:51.750Z,56.28
2018-03-15T21:43:19.190Z,51.78
2018-03-15T21:45:46.650Z,191.37
2018-03-15T21:48:14.260Z,103.47
2018-03-15T21:50:42.258Z,52.80
2018-03-15T21:53:10.031Z,52.72
2018-03-15T21:55:37.786Z,49.63
2018-03-15T21:58:05.413Z,47.67
2018-03-15T22:00:33.258Z,49.58
2018-03-15T22:03:01.102Z,193.20
2018-03-15T22:05:28.719Z,228.68
2018-03-15T22:07:56.166Z,119.60
2018-03-15T22:10:23.678Z,38.40
2018-03-15T22:12:51.534Z,59.10
2018-03-15T22:15:19.286Z,65.65
2018-03-15T22:17:46.750Z,35.25
2018-03-15T22:20:14.395Z,39.78
2018-03-15T22:22:41.833Z,42.33
2018-03-15T22:25:10.154Z,43.95
2018-03-15T22:27:37.966Z,55.50
2018-03-15T22:30:05.423Z,67.85
2018-03-15T22:32:32.944Z,107.80
2018-03-15T22:35:00.478Z,43.42
2018-03-15T22:37:27.918Z,44.20
2018-03-15T22:39:55.409Z,60.40
2018-03-15T22:42:22.854Z,37.88
2018-03-15T22:44:50.317Z,41.92
2018-03-15T22:47:18.077Z,46.17
2018-03-15T22:49:45.539Z,50.38
2018-03-15T22:52:13.195Z,49.17
2018-03-15T22:54:40.731Z,43.40
2018-03-15T22:57:08.951Z,31.52
2018-03-15T22:59:36.502Z,46.05
2018-03-15T23:02:04.647Z,49.75
2018-03-15T23:04:32.106Z,36.33
2018-03-15T23:06:59.756Z,48.95
2018-03-15T23:09:27.338Z,33.65
2018-03-15T23:11:54.818Z,61.60
2018-03-15T23:14:22.429Z,44.58
2018-03-15T23:16:49.918Z,46.78
2018-03-15T23:19:17.496Z,40.35
2018-03-15T23:21:44.947Z,45.53
2018-03-15T23:24:12.906Z,101.97
2018-03-15T23:26:40.358Z,30.75
2018-03-15T23:29:08.114Z,50.35
2018-03-15T23:31:35.693Z,42.13
2018-03-15T23:34:04.680Z,54.28
2018-03-15T23:36:32.458Z,71.22
2018-03-15T23:38:59.886Z,55.90
2018-03-15T23:41:27.577Z,55.15
2018-03-15T23:43:55.422Z,40.22
2018-03-15T23:46:22.883Z,21.35
2018-03-15T23:48:51.872Z,28.83
2018-03-15T23:51:19.546Z,132.27
2018-03-15T23:53:47.266Z,32.22
2018-03-15T23:56:15.172Z,44.60
2018-03-15T23:58:43.205Z,44.13
